Montpelier, Indiana
Current Conditions -  °F | °C
As of 9:15 AM on Saturday 22 Nov 2014 (Local Time) from KMZZ Reporting Station
Overcast Overcast  
Wind Chill: 28°   Ceiling: 5000
Heat Index: 37°   Visibility: 7mi
Dew Point: 32°   Wind: 16mph
Humidity: 81%   Direction: 200°SSW
Pressure: 30.16"   Gusts: NA
Location:  40.55°N, 85.28°W
Report Text: KMZZ 221415Z AUTO 20014KT 7SM BKN050 BKN070 OVC090 03/00 A3016 RMK AO2 T00300000
Loading
Personal Weather Stations






























Interactive Weather Map New forecast layout! Learn more

10-Day Weather Forecast

Advertisements
Track Severe Weather on mobile